sensor_id;sensor_type;location;lat;lon;timestamp;P1;durP1;ratioP1;P2;durP2;ratioP2
22924;SDS011;11628;51.072;3.712;2023-05-07T00:00:16;13.13;;;3.95;;
22924;SDS011;11628;51.072;3.712;2023-05-07T00:02:44;11.07;;;3.95;;
22924;SDS011;11628;51.072;3.712;2023-05-07T00:05:10;7.93;;;3.42;;
22924;SDS011;11628;51.072;3.712;2023-05-07T00:07:36;7.70;;;3.08;;
22924;SDS011;11628;51.072;3.712;2023-05-07T00:10:02;10.02;;;3.50;;
22924;SDS011;11628;51.072;3.712;2023-05-07T00:12:28;8.77;;;3.13;;
22924;SDS011;11628;51.072;3.712;2023-05-07T00:14:56;7.25;;;2.85;;
22924;SDS011;11628;51.072;3.712;2023-05-07T00:17:22;7.22;;;2.78;;
22924;SDS011;11628;51.072;3.712;2023-05-07T00:19:48;9.02;;;3.05;;
22924;SDS011;11628;51.072;3.712;2023-05-07T00:22:14;8.02;;;3.13;;
22924;SDS011;11628;51.072;3.712;2023-05-07T00:24:40;10.95;;;3.17;;
22924;SDS011;11628;51.072;3.712;2023-05-07T00:27:06;9.32;;;3.75;;
22924;SDS011;11628;51.072;3.712;2023-05-07T00:29:31;8.57;;;3.65;;
22924;SDS011;11628;51.072;3.712;2023-05-07T00:31:57;10.43;;;3.75;;
22924;SDS011;11628;51.072;3.712;2023-05-07T00:34:23;13.70;;;3.80;;
22924;SDS011;11628;51.072;3.712;2023-05-07T00:36:48;10.93;;;3.30;;
22924;SDS011;11628;51.072;3.712;2023-05-07T00:39:14;7.97;;;3.40;;
22924;SDS011;11628;51.072;3.712;2023-05-07T00:41:40;9.57;;;3.65;;
22924;SDS011;11628;51.072;3.712;2023-05-07T00:44:05;8.05;;;3.08;;
22924;SDS011;11628;51.072;3.712;2023-05-07T00:46:31;7.97;;;3.83;;
22924;SDS011;11628;51.072;3.712;2023-05-07T00:48:59;8.35;;;3.20;;
22924;SDS011;11628;51.072;3.712;2023-05-07T00:51:25;8.02;;;3.15;;
22924;SDS011;11628;51.072;3.712;2023-05-07T00:53:52;9.45;;;2.90;;
22924;SDS011;11628;51.072;3.712;2023-05-07T00:56:20;7.95;;;3.33;;
22924;SDS011;11628;51.072;3.712;2023-05-07T00:58:47;8.48;;;3.00;;
22924;SDS011;11628;51.072;3.712;2023-05-07T01:01:13;9.25;;;3.25;;
22924;SDS011;11628;51.072;3.712;2023-05-07T01:03:41;9.80;;;2.90;;
22924;SDS011;11628;51.072;3.712;2023-05-07T01:06:07;10.50;;;3.50;;
22924;SDS011;11628;51.072;3.712;2023-05-07T01:08:37;14.77;;;3.88;;
22924;SDS011;11628;51.072;3.712;2023-05-07T01:11:04;9.95;;;3.13;;
22924;SDS011;11628;51.072;3.712;2023-05-07T01:13:31;9.45;;;2.78;;
22924;SDS011;11628;51.072;3.712;2023-05-07T01:15:58;9.18;;;2.95;;
22924;SDS011;11628;51.072;3.712;2023-05-07T01:18:24;12.98;;;3.17;;
22924;SDS011;11628;51.072;3.712;2023-05-07T01:20:51;9.45;;;3.20;;
22924;SDS011;11628;51.072;3.712;2023-05-07T01:23:17;13.65;;;3.13;;
22924;SDS011;11628;51.072;3.712;2023-05-07T01:25:43;10.75;;;4.32;;
22924;SDS011;11628;51.072;3.712;2023-05-07T01:28:15;8.57;;;3.90;;
22924;SDS011;11628;51.072;3.712;2023-05-07T01:30:41;10.52;;;4.43;;
22924;SDS011;11628;51.072;3.712;2023-05-07T01:33:11;8.85;;;4.38;;
22924;SDS011;11628;51.072;3.712;2023-05-07T01:35:41;11.07;;;4.40;;
22924;SDS011;11628;51.072;3.712;2023-05-07T01:38:10;11.40;;;3.80;;
22924;SDS011;11628;51.072;3.712;2023-05-07T01:40:37;10.20;;;3.97;;
22924;SDS011;11628;51.072;3.712;2023-05-07T01:43:03;11.18;;;4.50;;
22924;SDS011;11628;51.072;3.712;2023-05-07T01:45:30;13.27;;;4.55;;
22924;SDS011;11628;51.072;3.712;2023-05-07T01:47:57;19.30;;;5.75;;
22924;SDS011;11628;51.072;3.712;2023-05-07T01:50:23;10.50;;;4.60;;
22924;SDS011;11628;51.072;3.712;2023-05-07T01:52:50;9.05;;;4.63;;
22924;SDS011;11628;51.072;3.712;2023-05-07T01:55:17;9.30;;;5.40;;
22924;SDS011;11628;51.072;3.712;2023-05-07T01:57:43;12.02;;;6.20;;
22924;SDS011;11628;51.072;3.712;2023-05-07T02:00:09;10.45;;;5.72;;
22924;SDS011;11628;51.072;3.712;2023-05-07T02:02:35;12.35;;;6.13;;
22924;SDS011;11628;51.072;3.712;2023-05-07T02:05:01;10.35;;;5.90;;
22924;SDS011;11628;51.072;3.712;2023-05-07T02:07:27;10.55;;;5.55;;
22924;SDS011;11628;51.072;3.712;2023-05-07T02:09:53;12.63;;;5.53;;
22924;SDS011;11628;51.072;3.712;2023-05-07T02:12:20;16.73;;;6.28;;
22924;SDS011;11628;51.072;3.712;2023-05-07T02:14:46;9.10;;;5.30;;
22924;SDS011;11628;51.072;3.712;2023-05-07T02:17:12;11.98;;;5.18;;
22924;SDS011;11628;51.072;3.712;2023-05-07T02:19:38;10.00;;;5.53;;
22924;SDS011;11628;51.072;3.712;2023-05-07T02:22:03;11.23;;;5.30;;
22924;SDS011;11628;51.072;3.712;2023-05-07T02:24:29;11.15;;;5.45;;
22924;SDS011;11628;51.072;3.712;2023-05-07T02:26:55;13.85;;;6.07;;
22924;SDS011;11628;51.072;3.712;2023-05-07T02:29:20;10.23;;;5.80;;
22924;SDS011;11628;51.072;3.712;2023-05-07T02:31:46;11.70;;;6.22;;
22924;SDS011;11628;51.072;3.712;2023-05-07T02:34:15;10.32;;;5.60;;
22924;SDS011;11628;51.072;3.712;2023-05-07T02:36:41;10.80;;;5.95;;
22924;SDS011;11628;51.072;3.712;2023-05-07T02:39:07;13.32;;;5.57;;
22924;SDS011;11628;51.072;3.712;2023-05-07T02:41:33;8.82;;;5.57;;
22924;SDS011;11628;51.072;3.712;2023-05-07T02:43:59;13.93;;;6.10;;
22924;SDS011;11628;51.072;3.712;2023-05-07T02:46:25;9.93;;;5.45;;
22924;SDS011;11628;51.072;3.712;2023-05-07T02:48:51;12.68;;;5.60;;
22924;SDS011;11628;51.072;3.712;2023-05-07T02:51:20;9.48;;;5.60;;
22924;SDS011;11628;51.072;3.712;2023-05-07T02:53:46;8.55;;;5.50;;
22924;SDS011;11628;51.072;3.712;2023-05-07T02:56:12;10.93;;;5.57;;
22924;SDS011;11628;51.072;3.712;2023-05-07T02:58:38;11.60;;;5.75;;
22924;SDS011;11628;51.072;3.712;2023-05-07T03:01:09;14.45;;;7.82;;
22924;SDS011;11628;51.072;3.712;2023-05-07T03:03:35;12.07;;;6.05;;
22924;SDS011;11628;51.072;3.712;2023-05-07T03:06:01;13.45;;;6.22;;
22924;SDS011;11628;51.072;3.712;2023-05-07T03:08:27;9.88;;;5.47;;
22924;SDS011;11628;51.072;3.712;2023-05-07T03:10:52;10.15;;;5.38;;
22924;SDS011;11628;51.072;3.712;2023-05-07T03:13:18;11.82;;;6.55;;
22924;SDS011;11628;51.072;3.712;2023-05-07T03:15:44;12.50;;;5.88;;
22924;SDS011;11628;51.072;3.712;2023-05-07T03:18:10;10.27;;;5.68;;
22924;SDS011;11628;51.072;3.712;2023-05-07T03:20:36;10.63;;;5.85;;
22924;SDS011;11628;51.072;3.712;2023-05-07T03:23:01;12.65;;;6.03;;
22924;SDS011;11628;51.072;3.712;2023-05-07T03:25:27;11.70;;;5.55;;
22924;SDS011;11628;51.072;3.712;2023-05-07T03:27:55;13.63;;;6.38;;
22924;SDS011;11628;51.072;3.712;2023-05-07T03:30:21;12.40;;;6.60;;
22924;SDS011;11628;51.072;3.712;2023-05-07T03:32:47;11.70;;;6.05;;
22924;SDS011;11628;51.072;3.712;2023-05-07T03:35:13;12.55;;;5.95;;
22924;SDS011;11628;51.072;3.712;2023-05-07T03:37:38;9.07;;;5.72;;
22924;SDS011;11628;51.072;3.712;2023-05-07T03:40:04;11.73;;;6.20;;
22924;SDS011;11628;51.072;3.712;2023-05-07T03:42:31;13.30;;;6.18;;
22924;SDS011;11628;51.072;3.712;2023-05-07T03:44:57;11.65;;;6.30;;
22924;SDS011;11628;51.072;3.712;2023-05-07T03:47:22;14.15;;;6.30;;
22924;SDS011;11628;51.072;3.712;2023-05-07T03:49:48;8.35;;;5.60;;
22924;SDS011;11628;51.072;3.712;2023-05-07T03:52:15;11.02;;;6.38;;
22924;SDS011;11628;51.072;3.712;2023-05-07T03:54:41;12.30;;;6.78;;
22924;SDS011;11628;51.072;3.712;2023-05-07T03:57:06;11.75;;;5.95;;
22924;SDS011;11628;51.072;3.712;2023-05-07T03:59:32;12.63;;;5.82;;
22924;SDS011;11628;51.072;3.712;2023-05-07T04:01:58;11.70;;;5.82;;
22924;SDS011;11628;51.072;3.712;2023-05-07T04:04:23;9.77;;;5.78;;
22924;SDS011;11628;51.072;3.712;2023-05-07T04:06:49;11.05;;;6.57;;
22924;SDS011;11628;51.072;3.712;2023-05-07T04:09:15;12.02;;;6.30;;
22924;SDS011;11628;51.072;3.712;2023-05-07T04:11:41;11.23;;;6.97;;
22924;SDS011;11628;51.072;3.712;2023-05-07T04:14:07;8.48;;;5.82;;
22924;SDS011;11628;51.072;3.712;2023-05-07T04:16:34;12.65;;;6.88;;
22924;SDS011;11628;51.072;3.712;2023-05-07T04:19:00;14.32;;;6.38;;
22924;SDS011;11628;51.072;3.712;2023-05-07T04:21:25;14.75;;;7.00;;
22924;SDS011;11628;51.072;3.712;2023-05-07T04:23:51;10.23;;;7.32;;
22924;SDS011;11628;51.072;3.712;2023-05-07T04:26:17;13.93;;;7.20;;
22924;SDS011;11628;51.072;3.712;2023-05-07T04:28:43;14.32;;;6.63;;
22924;SDS011;11628;51.072;3.712;2023-05-07T04:31:08;14.18;;;6.93;;
22924;SDS011;11628;51.072;3.712;2023-05-07T04:33:34;12.80;;;7.30;;
22924;SDS011;11628;51.072;3.712;2023-05-07T04:36:03;12.40;;;6.95;;
22924;SDS011;11628;51.072;3.712;2023-05-07T04:38:29;12.32;;;7.00;;
22924;SDS011;11628;51.072;3.712;2023-05-07T04:40:56;15.63;;;7.60;;
22924;SDS011;11628;51.072;3.712;2023-05-07T04:43:22;14.63;;;7.22;;
22924;SDS011;11628;51.072;3.712;2023-05-07T04:45:59;12.48;;;6.95;;
22924;SDS011;11628;51.072;3.712;2023-05-07T04:48:28;13.32;;;7.30;;
22924;SDS011;11628;51.072;3.712;2023-05-07T04:50:54;13.48;;;6.70;;
22924;SDS011;11628;51.072;3.712;2023-05-07T04:53:20;12.77;;;7.22;;
22924;SDS011;11628;51.072;3.712;2023-05-07T04:55:46;11.77;;;7.07;;
22924;SDS011;11628;51.072;3.712;2023-05-07T04:58:12;12.55;;;7.45;;
22924;SDS011;11628;51.072;3.712;2023-05-07T05:00:38;11.82;;;6.97;;
22924;SDS011;11628;51.072;3.712;2023-05-07T05:03:05;13.93;;;7.57;;
22924;SDS011;11628;51.072;3.712;2023-05-07T05:05:32;14.43;;;7.53;;
22924;SDS011;11628;51.072;3.712;2023-05-07T05:07:57;12.88;;;7.03;;
22924;SDS011;11628;51.072;3.712;2023-05-07T05:10:23;13.00;;;7.68;;
22924;SDS011;11628;51.072;3.712;2023-05-07T05:12:49;12.95;;;7.35;;
22924;SDS011;11628;51.072;3.712;2023-05-07T05:15:15;13.25;;;7.70;;
22924;SDS011;11628;51.072;3.712;2023-05-07T05:17:41;18.45;;;8.25;;
22924;SDS011;11628;51.072;3.712;2023-05-07T05:20:06;12.43;;;6.38;;
22924;SDS011;11628;51.072;3.712;2023-05-07T05:22:34;12.18;;;6.50;;
22924;SDS011;11628;51.072;3.712;2023-05-07T05:25:00;10.50;;;6.50;;
22924;SDS011;11628;51.072;3.712;2023-05-07T05:27:26;11.05;;;5.55;;
22924;SDS011;11628;51.072;3.712;2023-05-07T05:29:52;13.10;;;6.20;;
22924;SDS011;11628;51.072;3.712;2023-05-07T05:32:17;12.98;;;6.00;;
22924;SDS011;11628;51.072;3.712;2023-05-07T05:34:43;12.30;;;5.57;;
22924;SDS011;11628;51.072;3.712;2023-05-07T05:37:09;10.20;;;5.20;;
22924;SDS011;11628;51.072;3.712;2023-05-07T05:39:35;9.95;;;5.45;;
22924;SDS011;11628;51.072;3.712;2023-05-07T05:42:01;12.60;;;5.93;;
22924;SDS011;11628;51.072;3.712;2023-05-07T05:44:26;8.75;;;5.80;;
22924;SDS011;11628;51.072;3.712;2023-05-07T05:46:52;17.23;;;6.80;;
22924;SDS011;11628;51.072;3.712;2023-05-07T05:49:20;10.25;;;5.80;;
22924;SDS011;11628;51.072;3.712;2023-05-07T05:51:46;10.73;;;5.43;;
22924;SDS011;11628;51.072;3.712;2023-05-07T05:54:12;12.15;;;6.18;;
22924;SDS011;11628;51.072;3.712;2023-05-07T05:56:37;12.27;;;6.03;;
22924;SDS011;11628;51.072;3.712;2023-05-07T05:59:03;13.45;;;5.57;;
22924;SDS011;11628;51.072;3.712;2023-05-07T06:01:29;11.73;;;6.00;;
22924;SDS011;11628;51.072;3.712;2023-05-07T06:03:55;16.63;;;7.00;;
22924;SDS011;11628;51.072;3.712;2023-05-07T06:06:21;9.93;;;5.75;;
22924;SDS011;11628;51.072;3.712;2023-05-07T06:08:47;10.52;;;5.80;;
22924;SDS011;11628;51.072;3.712;2023-05-07T06:11:13;12.23;;;6.53;;
22924;SDS011;11628;51.072;3.712;2023-05-07T06:13:39;10.27;;;6.50;;
22924;SDS011;11628;51.072;3.712;2023-05-07T06:16:04;12.35;;;6.22;;
22924;SDS011;11628;51.072;3.712;2023-05-07T06:18:30;13.18;;;6.43;;
22924;SDS011;11628;51.072;3.712;2023-05-07T06:20:56;11.82;;;7.53;;
22924;SDS011;11628;51.072;3.712;2023-05-07T06:23:22;10.40;;;7.07;;
22924;SDS011;11628;51.072;3.712;2023-05-07T06:25:48;11.60;;;6.70;;
22924;SDS011;11628;51.072;3.712;2023-05-07T06:28:15;11.68;;;6.57;;
22924;SDS011;11628;51.072;3.712;2023-05-07T06:30:41;11.15;;;7.00;;
22924;SDS011;11628;51.072;3.712;2023-05-07T06:33:06;12.35;;;6.60;;
22924;SDS011;11628;51.072;3.712;2023-05-07T06:35:32;8.52;;;6.28;;
22924;SDS011;11628;51.072;3.712;2023-05-07T06:37:58;13.93;;;6.53;;
22924;SDS011;11628;51.072;3.712;2023-05-07T06:40:24;10.82;;;6.03;;
22924;SDS011;11628;51.072;3.712;2023-05-07T06:42:50;7.40;;;4.40;;
22924;SDS011;11628;51.072;3.712;2023-05-07T06:45:16;11.25;;;5.75;;
22924;SDS011;11628;51.072;3.712;2023-05-07T06:47:42;8.75;;;4.95;;
22924;SDS011;11628;51.072;3.712;2023-05-07T06:50:08;11.75;;;5.95;;
22924;SDS011;11628;51.072;3.712;2023-05-07T06:52:34;8.75;;;5.38;;
22924;SDS011;11628;51.072;3.712;2023-05-07T06:55:01;12.13;;;5.80;;
22924;SDS011;11628;51.072;3.712;2023-05-07T06:57:27;10.25;;;5.25;;
22924;SDS011;11628;51.072;3.712;2023-05-07T06:59:53;9.75;;;5.70;;
22924;SDS011;11628;51.072;3.712;2023-05-07T07:02:18;13.07;;;5.68;;
22924;SDS011;11628;51.072;3.712;2023-05-07T07:04:44;12.07;;;6.03;;
22924;SDS011;11628;51.072;3.712;2023-05-07T07:07:10;11.05;;;5.72;;
22924;SDS011;11628;51.072;3.712;2023-05-07T07:09:36;10.32;;;6.57;;
22924;SDS011;11628;51.072;3.712;2023-05-07T07:12:01;12.18;;;6.85;;
22924;SDS011;11628;51.072;3.712;2023-05-07T07:14:27;13.05;;;6.65;;
22924;SDS011;11628;51.072;3.712;2023-05-07T07:16:53;11.82;;;6.75;;
22924;SDS011;11628;51.072;3.712;2023-05-07T07:19:19;12.10;;;6.60;;
22924;SDS011;11628;51.072;3.712;2023-05-07T07:21:45;10.18;;;7.20;;
22924;SDS011;11628;51.072;3.712;2023-05-07T07:24:11;11.48;;;7.20;;
22924;SDS011;11628;51.072;3.712;2023-05-07T07:26:37;10.25;;;7.32;;
22924;SDS011;11628;51.072;3.712;2023-05-07T07:29:05;12.07;;;7.13;;
22924;SDS011;11628;51.072;3.712;2023-05-07T07:31:31;12.27;;;7.15;;
22924;SDS011;11628;51.072;3.712;2023-05-07T07:33:57;14.77;;;7.13;;
22924;SDS011;11628;51.072;3.712;2023-05-07T07:36:23;11.80;;;7.63;;
22924;SDS011;11628;51.072;3.712;2023-05-07T07:38:49;11.55;;;7.35;;
22924;SDS011;11628;51.072;3.712;2023-05-07T07:41:15;11.60;;;7.88;;
22924;SDS011;11628;51.072;3.712;2023-05-07T07:43:40;12.02;;;6.78;;
22924;SDS011;11628;51.072;3.712;2023-05-07T07:46:06;12.20;;;7.68;;
22924;SDS011;11628;51.072;3.712;2023-05-07T07:48:32;11.73;;;7.65;;
22924;SDS011;11628;51.072;3.712;2023-05-07T07:50:58;12.40;;;7.38;;
22924;SDS011;11628;51.072;3.712;2023-05-07T07:53:24;14.10;;;7.97;;
22924;SDS011;11628;51.072;3.712;2023-05-07T07:55:50;11.43;;;7.93;;
22924;SDS011;11628;51.072;3.712;2023-05-07T07:58:16;12.93;;;7.93;;
22924;SDS011;11628;51.072;3.712;2023-05-07T08:00:41;10.35;;;7.38;;
22924;SDS011;11628;51.072;3.712;2023-05-07T08:03:10;9.80;;;7.30;;
22924;SDS011;11628;51.072;3.712;2023-05-07T08:05:36;11.85;;;7.47;;
22924;SDS011;11628;51.072;3.712;2023-05-07T08:08:03;13.52;;;8.48;;
22924;SDS011;11628;51.072;3.712;2023-05-07T08:10:29;14.35;;;7.05;;
22924;SDS011;11628;51.072;3.712;2023-05-07T08:12:58;12.60;;;7.68;;
22924;SDS011;11628;51.072;3.712;2023-05-07T08:15:24;11.23;;;6.97;;
22924;SDS011;11628;51.072;3.712;2023-05-07T08:17:50;12.48;;;8.02;;
22924;SDS011;11628;51.072;3.712;2023-05-07T08:20:16;12.65;;;8.48;;
22924;SDS011;11628;51.072;3.712;2023-05-07T08:22:41;13.77;;;8.18;;
22924;SDS011;11628;51.072;3.712;2023-05-07T08:25:07;12.23;;;8.50;;
22924;SDS011;11628;51.072;3.712;2023-05-07T08:27:33;13.18;;;8.88;;
22924;SDS011;11628;51.072;3.712;2023-05-07T08:29:59;10.55;;;8.50;;
22924;SDS011;11628;51.072;3.712;2023-05-07T08:32:25;13.80;;;8.88;;
22924;SDS011;11628;51.072;3.712;2023-05-07T08:34:50;10.80;;;8.18;;
22924;SDS011;11628;51.072;3.712;2023-05-07T08:37:16;13.13;;;7.88;;
22924;SDS011;11628;51.072;3.712;2023-05-07T08:39:42;14.23;;;7.82;;
22924;SDS011;11628;51.072;3.712;2023-05-07T08:42:08;11.40;;;7.82;;
22924;SDS011;11628;51.072;3.712;2023-05-07T08:44:36;12.38;;;7.55;;
22924;SDS011;11628;51.072;3.712;2023-05-07T08:47:06;13.18;;;7.72;;
22924;SDS011;11628;51.072;3.712;2023-05-07T08:49:32;11.43;;;6.78;;
22924;SDS011;11628;51.072;3.712;2023-05-07T08:51:59;9.55;;;6.40;;
22924;SDS011;11628;51.072;3.712;2023-05-07T08:54:25;11.18;;;6.35;;
22924;SDS011;11628;51.072;3.712;2023-05-07T08:56:52;9.60;;;6.40;;
22924;SDS011;11628;51.072;3.712;2023-05-07T08:59:18;12.48;;;6.85;;
22924;SDS011;11628;51.072;3.712;2023-05-07T09:01:44;12.30;;;5.88;;
22924;SDS011;11628;51.072;3.712;2023-05-07T09:04:09;9.00;;;5.60;;
22924;SDS011;11628;51.072;3.712;2023-05-07T09:06:35;12.13;;;6.28;;
22924;SDS011;11628;51.072;3.712;2023-05-07T09:09:03;10.27;;;5.97;;
22924;SDS011;11628;51.072;3.712;2023-05-07T09:11:30;7.28;;;5.10;;
22924;SDS011;11628;51.072;3.712;2023-05-07T09:13:56;9.30;;;5.53;;
22924;SDS011;11628;51.072;3.712;2023-05-07T09:16:24;9.27;;;6.05;;
22924;SDS011;11628;51.072;3.712;2023-05-07T09:18:51;8.57;;;4.88;;
22924;SDS011;11628;51.072;3.712;2023-05-07T09:21:18;9.90;;;5.22;;
22924;SDS011;11628;51.072;3.712;2023-05-07T09:23:45;8.95;;;5.40;;
22924;SDS011;11628;51.072;3.712;2023-05-07T09:26:12;10.20;;;5.35;;
22924;SDS011;11628;51.072;3.712;2023-05-07T09:28:39;13.70;;;5.85;;
22924;SDS011;11628;51.072;3.712;2023-05-07T09:31:06;7.18;;;4.25;;
22924;SDS011;11628;51.072;3.712;2023-05-07T09:33:33;8.18;;;4.20;;
22924;SDS011;11628;51.072;3.712;2023-05-07T09:36:02;6.97;;;4.47;;
22924;SDS011;11628;51.072;3.712;2023-05-07T09:38:32;9.90;;;4.65;;
22924;SDS011;11628;51.072;3.712;2023-05-07T09:41:06;9.98;;;4.70;;
22924;SDS011;11628;51.072;3.712;2023-05-07T09:43:34;6.10;;;3.83;;
22924;SDS011;11628;51.072;3.712;2023-05-07T09:46:24;5.50;;;3.60;;
22924;SDS011;11628;51.072;3.712;2023-05-07T09:48:50;7.57;;;3.38;;
22924;SDS011;11628;51.072;3.712;2023-05-07T09:53:52;5.68;;;2.42;;
22924;SDS011;11628;51.072;3.712;2023-05-07T09:56:18;7.55;;;3.17;;
22924;SDS011;11628;51.072;3.712;2023-05-07T09:58:45;8.75;;;2.85;;
22924;SDS011;11628;51.072;3.712;2023-05-07T10:01:11;6.60;;;2.63;;
22924;SDS011;11628;51.072;3.712;2023-05-07T10:03:39;5.65;;;3.03;;
22924;SDS011;11628;51.072;3.712;2023-05-07T10:06:08;4.32;;;2.65;;
22924;SDS011;11628;51.072;3.712;2023-05-07T10:08:35;7.65;;;2.70;;
22924;SDS011;11628;51.072;3.712;2023-05-07T10:11:03;6.57;;;3.08;;
22924;SDS011;11628;51.072;3.712;2023-05-07T10:13:29;7.43;;;3.28;;
22924;SDS011;11628;51.072;3.712;2023-05-07T10:15:56;5.57;;;2.92;;
22924;SDS011;11628;51.072;3.712;2023-05-07T10:18:22;7.60;;;3.20;;
22924;SDS011;11628;51.072;3.712;2023-05-07T10:20:54;8.32;;;3.60;;
22924;SDS011;11628;51.072;3.712;2023-05-07T10:23:23;5.50;;;3.47;;
22924;SDS011;11628;51.072;3.712;2023-05-07T10:25:51;6.75;;;3.20;;
22924;SDS011;11628;51.072;3.712;2023-05-07T10:28:18;5.88;;;3.22;;
22924;SDS011;11628;51.072;3.712;2023-05-07T10:33:13;6.30;;;3.00;;
22924;SDS011;11628;51.072;3.712;2023-05-07T10:35:44;5.35;;;3.08;;
22924;SDS011;11628;51.072;3.712;2023-05-07T10:38:11;5.68;;;2.90;;
22924;SDS011;11628;51.072;3.712;2023-05-07T10:40:37;5.80;;;3.22;;
22924;SDS011;11628;51.072;3.712;2023-05-07T10:43:04;7.30;;;3.15;;
22924;SDS011;11628;51.072;3.712;2023-05-07T10:45:30;7.13;;;2.72;;
22924;SDS011;11628;51.072;3.712;2023-05-07T10:48:10;4.28;;;2.35;;
22924;SDS011;11628;51.072;3.712;2023-05-07T10:50:41;5.10;;;2.70;;
22924;SDS011;11628;51.072;3.712;2023-05-07T10:55:42;6.80;;;2.53;;
22924;SDS011;11628;51.072;3.712;2023-05-07T11:00:46;4.97;;;2.00;;
22924;SDS011;11628;51.072;3.712;2023-05-07T11:03:12;4.88;;;1.98;;
22924;SDS011;11628;51.072;3.712;2023-05-07T11:05:40;5.55;;;1.90;;
22924;SDS011;11628;51.072;3.712;2023-05-07T11:08:06;4.32;;;2.38;;
22924;SDS011;11628;51.072;3.712;2023-05-07T11:16:22;3.83;;;2.28;;
22924;SDS011;11628;51.072;3.712;2023-05-07T11:18:53;3.28;;;2.00;;
22924;SDS011;11628;51.072;3.712;2023-05-07T11:21:39;4.22;;;1.70;;
22924;SDS011;11628;51.072;3.712;2023-05-07T11:24:06;5.80;;;1.77;;
22924;SDS011;11628;51.072;3.712;2023-05-07T11:26:42;2.78;;;1.90;;
22924;SDS011;11628;51.072;3.712;2023-05-07T11:29:13;3.33;;;1.75;;
22924;SDS011;11628;51.072;3.712;2023-05-07T11:31:40;3.58;;;1.60;;
22924;SDS011;11628;51.072;3.712;2023-05-07T11:34:05;2.92;;;2.05;;
22924;SDS011;11628;51.072;3.712;2023-05-07T11:36:32;4.18;;;2.20;;
22924;SDS011;11628;51.072;3.712;2023-05-07T11:38:58;3.67;;;1.83;;
22924;SDS011;11628;51.072;3.712;2023-05-07T11:41:36;3.70;;;1.70;;
22924;SDS011;11628;51.072;3.712;2023-05-07T11:44:02;4.35;;;1.95;;
22924;SDS011;11628;51.072;3.712;2023-05-07T11:46:28;2.13;;;1.48;;
22924;SDS011;11628;51.072;3.712;2023-05-07T11:48:54;2.88;;;1.83;;
22924;SDS011;11628;51.072;3.712;2023-05-07T11:51:22;5.63;;;3.03;;
22924;SDS011;11628;51.072;3.712;2023-05-07T11:53:49;4.22;;;2.15;;
22924;SDS011;11628;51.072;3.712;2023-05-07T11:56:16;3.75;;;2.25;;
22924;SDS011;11628;51.072;3.712;2023-05-07T11:58:43;2.60;;;1.65;;
22924;SDS011;11628;51.072;3.712;2023-05-07T12:01:10;4.50;;;1.80;;
22924;SDS011;11628;51.072;3.712;2023-05-07T12:03:39;2.22;;;1.40;;
22924;SDS011;11628;51.072;3.712;2023-05-07T12:06:11;3.63;;;2.15;;
22924;SDS011;11628;51.072;3.712;2023-05-07T12:08:38;1.88;;;1.70;;
22924;SDS011;11628;51.072;3.712;2023-05-07T12:11:18;3.70;;;1.55;;
22924;SDS011;11628;51.072;3.712;2023-05-07T12:13:48;1.92;;;1.55;;
22924;SDS011;11628;51.072;3.712;2023-05-07T12:16:14;3.90;;;1.45;;
22924;SDS011;11628;51.072;3.712;2023-05-07T12:18:39;4.47;;;1.98;;
22924;SDS011;11628;51.072;3.712;2023-05-07T12:21:05;3.70;;;1.50;;
22924;SDS011;11628;51.072;3.712;2023-05-07T12:23:33;2.75;;;1.30;;
22924;SDS011;11628;51.072;3.712;2023-05-07T12:26:02;1.90;;;1.25;;
22924;SDS011;11628;51.072;3.712;2023-05-07T12:28:28;2.33;;;1.45;;
22924;SDS011;11628;51.072;3.712;2023-05-07T12:30:55;3.25;;;1.50;;
22924;SDS011;11628;51.072;3.712;2023-05-07T12:33:25;2.67;;;1.58;;
22924;SDS011;11628;51.072;3.712;2023-05-07T12:35:53;3.38;;;1.40;;
22924;SDS011;11628;51.072;3.712;2023-05-07T12:38:20;1.65;;;1.35;;
22924;SDS011;11628;51.072;3.712;2023-05-07T12:40:47;2.53;;;1.13;;
22924;SDS011;11628;51.072;3.712;2023-05-07T12:43:19;2.13;;;1.20;;
22924;SDS011;11628;51.072;3.712;2023-05-07T12:45:59;2.08;;;1.35;;
22924;SDS011;11628;51.072;3.712;2023-05-07T12:48:26;2.78;;;1.60;;
22924;SDS011;11628;51.072;3.712;2023-05-07T12:50:53;3.40;;;1.65;;
22924;SDS011;11628;51.072;3.712;2023-05-07T12:53:20;3.30;;;2.10;;
22924;SDS011;11628;51.072;3.712;2023-05-07T12:55:48;3.80;;;2.65;;
22924;SDS011;11628;51.072;3.712;2023-05-07T12:58:16;2.42;;;1.50;;
22924;SDS011;11628;51.072;3.712;2023-05-07T13:00:43;2.95;;;1.30;;
22924;SDS011;11628;51.072;3.712;2023-05-07T13:03:09;3.22;;;1.50;;
22924;SDS011;11628;51.072;3.712;2023-05-07T13:05:35;2.95;;;1.30;;
22924;SDS011;11628;51.072;3.712;2023-05-07T13:08:01;3.42;;;1.60;;
22924;SDS011;11628;51.072;3.712;2023-05-07T13:10:27;2.42;;;1.20;;
22924;SDS011;11628;51.072;3.712;2023-05-07T13:12:53;1.75;;;1.35;;
22924;SDS011;11628;51.072;3.712;2023-05-07T13:15:20;1.45;;;1.20;;
22924;SDS011;11628;51.072;3.712;2023-05-07T13:17:46;2.58;;;1.70;;
22924;SDS011;11628;51.072;3.712;2023-05-07T13:20:12;1.63;;;1.40;;
22924;SDS011;11628;51.072;3.712;2023-05-07T13:22:38;2.58;;;1.45;;
22924;SDS011;11628;51.072;3.712;2023-05-07T13:25:05;3.08;;;1.42;;
22924;SDS011;11628;51.072;3.712;2023-05-07T13:27:31;2.90;;;1.58;;
22924;SDS011;11628;51.072;3.712;2023-05-07T13:29:57;2.85;;;1.67;;
22924;SDS011;11628;51.072;3.712;2023-05-07T13:32:24;9.50;;;3.55;;
22924;SDS011;11628;51.072;3.712;2023-05-07T13:34:49;2.30;;;1.60;;
22924;SDS011;11628;51.072;3.712;2023-05-07T13:37:15;2.38;;;1.40;;
22924;SDS011;11628;51.072;3.712;2023-05-07T13:39:41;1.70;;;1.10;;
22924;SDS011;11628;51.072;3.712;2023-05-07T13:42:06;3.30;;;1.70;;
22924;SDS011;11628;51.072;3.712;2023-05-07T13:44:32;2.80;;;1.55;;
22924;SDS011;11628;51.072;3.712;2023-05-07T13:46:58;2.83;;;1.60;;
22924;SDS011;11628;51.072;3.712;2023-05-07T13:49:23;3.28;;;1.77;;
22924;SDS011;11628;51.072;3.712;2023-05-07T13:51:49;2.63;;;1.33;;
22924;SDS011;11628;51.072;3.712;2023-05-07T13:54:15;2.78;;;1.80;;
22924;SDS011;11628;51.072;3.712;2023-05-07T13:56:41;4.82;;;2.20;;
22924;SDS011;11628;51.072;3.712;2023-05-07T13:59:06;4.70;;;2.30;;
22924;SDS011;11628;51.072;3.712;2023-05-07T14:01:33;4.82;;;2.00;;
22924;SDS011;11628;51.072;3.712;2023-05-07T14:03:58;2.95;;;2.15;;
22924;SDS011;11628;51.072;3.712;2023-05-07T14:06:24;2.33;;;2.03;;
22924;SDS011;11628;51.072;3.712;2023-05-07T14:08:51;4.10;;;2.08;;
22924;SDS011;11628;51.072;3.712;2023-05-07T14:11:17;4.90;;;2.65;;
22924;SDS011;11628;51.072;3.712;2023-05-07T14:13:42;3.75;;;2.30;;
22924;SDS011;11628;51.072;3.712;2023-05-07T14:16:08;4.70;;;2.78;;
22924;SDS011;11628;51.072;3.712;2023-05-07T14:18:34;2.85;;;2.20;;
22924;SDS011;11628;51.072;3.712;2023-05-07T14:21:01;3.33;;;2.40;;
22924;SDS011;11628;51.072;3.712;2023-05-07T14:23:27;3.88;;;2.78;;
22924;SDS011;11628;51.072;3.712;2023-05-07T14:25:53;4.88;;;3.70;;
22924;SDS011;11628;51.072;3.712;2023-05-07T14:28:19;6.75;;;4.72;;
22924;SDS011;11628;51.072;3.712;2023-05-07T14:30:45;6.75;;;5.10;;
22924;SDS011;11628;51.072;3.712;2023-05-07T14:33:11;8.68;;;5.75;;
22924;SDS011;11628;51.072;3.712;2023-05-07T14:35:37;6.93;;;5.60;;
22924;SDS011;11628;51.072;3.712;2023-05-07T14:38:03;7.10;;;5.07;;
22924;SDS011;11628;51.072;3.712;2023-05-07T14:40:28;6.25;;;5.47;;
22924;SDS011;11628;51.072;3.712;2023-05-07T14:42:54;6.45;;;4.78;;
22924;SDS011;11628;51.072;3.712;2023-05-07T14:45:22;5.05;;;4.55;;
22924;SDS011;11628;51.072;3.712;2023-05-07T14:47:47;3.55;;;2.88;;
22924;SDS011;11628;51.072;3.712;2023-05-07T14:50:13;4.38;;;3.63;;
22924;SDS011;11628;51.072;3.712;2023-05-07T14:52:39;2.05;;;1.80;;